Wolfeboro Falls, New Hampshire
Current Conditions -  °F | °C
As of 12:35 AM on Sunday 26 Oct 2014 (Local Time) from KLCI Reporting Station
Clear Clear  
Wind Chill: 50°   Ceiling: Unl
Heat Index: 50°   Visibility: 10mi
Dew Point: 45°   Wind: 8mph
Humidity: 82%   Direction: 240°WSW
Pressure: 29.44"   Gusts: NA
Location:  43.59°N, 71.21°W
Report Text: KLCI 260435Z AUTO 24007KT 10SM CLR 10/07 A2944 RMK AO1
Loading
Personal Weather Stations






























Interactive Weather Map
Tropical Storm Tracking
New forecast layout! Learn more

10-Day Weather Forecast

Advertisements
Track Severe Weather on mobile